sensor_id;sensor_type;location;lat;lon;timestamp;pressure;altitude;pressure_sealevel;temperature;humidity
61113;BME280;47184;57.998;56.184;2023-02-02T00:01:20;100773.69;;;-7.21;61.07
61113;BME280;47184;57.998;56.184;2023-02-02T00:03:47;100766.00;;;-7.21;60.97
61113;BME280;47184;57.998;56.184;2023-02-02T00:06:23;100725.38;;;-7.44;60.71
61113;BME280;47184;57.998;56.184;2023-02-02T00:08:50;100766.88;;;-7.22;60.91
61113;BME280;47184;57.998;56.184;2023-02-02T00:11:17;100770.28;;;-7.22;60.51
61113;BME280;47184;57.998;56.184;2023-02-02T00:13:44;100750.00;;;-7.36;60.81
61113;BME280;47184;57.998;56.184;2023-02-02T00:19:20;100761.97;;;-7.35;60.41
61113;BME280;47184;57.998;56.184;2023-02-02T00:21:46;100751.63;;;-7.32;60.50
61113;BME280;47184;57.998;56.184;2023-02-02T00:24:14;100749.09;;;-7.33;60.36
61113;BME280;47184;57.998;56.184;2023-02-02T00:26:41;100745.72;;;-7.35;60.60
61113;BME280;47184;57.998;56.184;2023-02-02T00:29:14;100722.19;;;-7.57;60.44
61113;BME280;47184;57.998;56.184;2023-02-02T00:31:40;100745.94;;;-7.46;60.93
61113;BME280;47184;57.998;56.184;2023-02-02T00:34:06;100739.22;;;-7.53;60.60
61113;BME280;47184;57.998;56.184;2023-02-02T00:36:32;100718.91;;;-7.64;60.56
61113;BME280;47184;57.998;56.184;2023-02-02T00:38:58;100750.13;;;-7.43;60.83
61113;BME280;47184;57.998;56.184;2023-02-02T00:41:24;100696.84;;;-7.71;60.63
61113;BME280;47184;57.998;56.184;2023-02-02T00:43:50;100730.69;;;-7.54;60.31
61113;BME280;47184;57.998;56.184;2023-02-02T00:46:40;100728.25;;;-7.61;60.86
61113;BME280;47184;57.998;56.184;2023-02-02T00:49:07;100757.03;;;-7.45;60.24
61113;BME280;47184;57.998;56.184;2023-02-02T00:51:35;100745.94;;;-7.46;60.77
61113;BME280;47184;57.998;56.184;2023-02-02T00:54:01;100747.66;;;-7.46;60.56
61113;BME280;47184;57.998;56.184;2023-02-02T00:56:27;100734.09;;;-7.53;60.66
61113;BME280;47184;57.998;56.184;2023-02-02T00:58:53;100698.59;;;-7.76;60.20
61113;BME280;47184;57.998;56.184;2023-02-02T01:01:20;100757.88;;;-7.45;59.92
61113;BME280;47184;57.998;56.184;2023-02-02T01:03:50;100728.31;;;-7.63;60.52
61113;BME280;47184;57.998;56.184;2023-02-02T01:06:17;100725.81;;;-7.67;60.14
61113;BME280;47184;57.998;56.184;2023-02-02T01:08:43;100758.94;;;-7.55;60.39
61113;BME280;47184;57.998;56.184;2023-02-02T01:11:09;100752.13;;;-7.58;60.09
61113;BME280;47184;57.998;56.184;2023-02-02T01:13:37;100762.34;;;-7.55;60.24
61113;BME280;47184;57.998;56.184;2023-02-02T01:16:03;100754.66;;;-7.55;60.03
61113;BME280;47184;57.998;56.184;2023-02-02T01:18:30;100743.53;;;-7.55;60.37
61113;BME280;47184;57.998;56.184;2023-02-02T01:20:57;100733.44;;;-7.64;60.05
61113;BME280;47184;57.998;56.184;2023-02-02T01:23:24;100729.22;;;-7.67;60.30
61113;BME280;47184;57.998;56.184;2023-02-02T01:25:54;100740.19;;;-7.60;59.70
61113;BME280;47184;57.998;56.184;2023-02-02T01:28:21;100739.34;;;-7.61;60.29
61113;BME280;47184;57.998;56.184;2023-02-02T01:30:47;100746.16;;;-7.60;60.34
61113;BME280;47184;57.998;56.184;2023-02-02T01:33:15;100749.59;;;-7.59;60.41
61113;BME280;47184;57.998;56.184;2023-02-02T01:35:52;100744.56;;;-7.65;59.94
61113;BME280;47184;57.998;56.184;2023-02-02T01:38:19;100753.16;;;-7.66;60.04
61113;BME280;47184;57.998;56.184;2023-02-02T01:40:53;100749.03;;;-7.75;60.48
61113;BME280;47184;57.998;56.184;2023-02-02T01:43:26;100721.88;;;-7.87;60.25
61113;BME280;47184;57.998;56.184;2023-02-02T01:45:54;100705.97;;;-8.06;59.78
61113;BME280;47184;57.998;56.184;2023-02-02T01:48:27;100751.63;;;-7.78;59.64
61113;BME280;47184;57.998;56.184;2023-02-02T01:50:59;100754.13;;;-7.74;60.04
61113;BME280;47184;57.998;56.184;2023-02-02T01:53:27;100742.41;;;-7.87;59.96
61113;BME280;47184;57.998;56.184;2023-02-02T01:55:54;100745.75;;;-7.85;59.57
61113;BME280;47184;57.998;56.184;2023-02-02T01:58:25;100754.25;;;-7.81;59.39
61113;BME280;47184;57.998;56.184;2023-02-02T02:00:55;100701.78;;;-8.10;59.52
61113;BME280;47184;57.998;56.184;2023-02-02T02:03:24;100752.53;;;-7.81;59.73
61113;BME280;47184;57.998;56.184;2023-02-02T02:05:58;100752.59;;;-7.84;59.41
61113;BME280;47184;57.998;56.184;2023-02-02T02:08:30;100750.81;;;-7.79;59.23
61113;BME280;47184;57.998;56.184;2023-02-02T02:10:57;100719.50;;;-7.98;58.85
61113;BME280;47184;57.998;56.184;2023-02-02T02:13:25;100761.09;;;-7.82;59.55
61113;BME280;47184;57.998;56.184;2023-02-02T02:16:23;100745.00;;;-7.90;59.26
61113;BME280;47184;57.998;56.184;2023-02-02T02:22:15;100756.09;;;-7.89;59.42
61113;BME280;47184;57.998;56.184;2023-02-02T02:34:05;100759.69;;;-8.00;59.25
61113;BME280;47184;57.998;56.184;2023-02-02T02:36:47;100751.13;;;-7.99;58.61
61113;BME280;47184;57.998;56.184;2023-02-02T02:41:55;100751.88;;;-7.92;58.88
61113;BME280;47184;57.998;56.184;2023-02-02T02:44:23;100755.16;;;-7.84;58.69
61113;BME280;47184;57.998;56.184;2023-02-02T02:46:53;100741.59;;;-7.90;58.63
61113;BME280;47184;57.998;56.184;2023-02-02T02:49:20;100761.06;;;-7.80;58.34
61113;BME280;47184;57.998;56.184;2023-02-02T02:51:50;100761.97;;;-7.84;59.14
61113;BME280;47184;57.998;56.184;2023-02-02T02:54:53;100741.78;;;-8.01;59.23
61113;BME280;47184;57.998;56.184;2023-02-02T02:57:33;100758.56;;;-7.83;58.39
61113;BME280;47184;57.998;56.184;2023-02-02T03:06:13;100748.56;;;-7.99;58.57
61113;BME280;47184;57.998;56.184;2023-02-02T03:09:02;100741.84;;;-8.04;59.38
61113;BME280;47184;57.998;56.184;2023-02-02T03:11:33;100755.56;;;-8.08;59.05
61113;BME280;47184;57.998;56.184;2023-02-02T03:14:00;100720.19;;;-8.37;59.26
61113;BME280;47184;57.998;56.184;2023-02-02T03:16:26;100766.75;;;-8.12;59.21
61113;BME280;47184;57.998;56.184;2023-02-02T03:18:53;100775.25;;;-8.10;59.50
61113;BME280;47184;57.998;56.184;2023-02-02T03:21:21;100745.59;;;-8.27;59.61
61113;BME280;47184;57.998;56.184;2023-02-02T03:23:48;100792.22;;;-8.03;59.34
61113;BME280;47184;57.998;56.184;2023-02-02T03:26:14;100771.00;;;-8.13;59.64
61113;BME280;47184;57.998;56.184;2023-02-02T03:28:40;100788.69;;;-7.98;59.95
61113;BME280;47184;57.998;56.184;2023-02-02T03:31:06;100766.75;;;-8.12;59.03
61113;BME280;47184;57.998;56.184;2023-02-02T03:33:34;100769.22;;;-8.08;59.40
61113;BME280;47184;57.998;56.184;2023-02-02T03:36:02;100776.88;;;-8.06;59.48
61113;BME280;47184;57.998;56.184;2023-02-02T03:38:29;100782.81;;;-8.03;59.06
61113;BME280;47184;57.998;56.184;2023-02-02T03:40:56;100784.53;;;-8.03;59.10
61113;BME280;47184;57.998;56.184;2023-02-02T03:43:23;100791.34;;;-8.02;58.80
61113;BME280;47184;57.998;56.184;2023-02-02T03:46:00;100791.38;;;-8.05;59.68
61113;BME280;47184;57.998;56.184;2023-02-02T03:48:29;100794.94;;;-8.12;59.46
61113;BME280;47184;57.998;56.184;2023-02-02T03:50:55;100785.56;;;-8.15;59.02
61113;BME280;47184;57.998;56.184;2023-02-02T03:53:23;100799.16;;;-8.11;59.58
61113;BME280;47184;57.998;56.184;2023-02-02T03:55:49;100794.94;;;-8.12;59.45
61113;BME280;47184;57.998;56.184;2023-02-02T03:58:15;100797.41;;;-8.09;59.06
61113;BME280;47184;57.998;56.184;2023-02-02T04:00:42;100758.53;;;-8.34;59.27
61113;BME280;47184;57.998;56.184;2023-02-02T04:03:08;100787.16;;;-8.09;58.69
61113;BME280;47184;57.998;56.184;2023-02-02T04:05:35;100750.06;;;-8.38;58.73
61113;BME280;47184;57.998;56.184;2023-02-02T04:08:01;100797.44;;;-8.11;58.76
61113;BME280;47184;57.998;56.184;2023-02-02T04:10:28;100788.16;;;-8.18;58.92
61113;BME280;47184;57.998;56.184;2023-02-02T04:12:54;100788.19;;;-8.21;58.75
61113;BME280;47184;57.998;56.184;2023-02-02T04:15:20;100777.19;;;-8.25;58.92
61113;BME280;47184;57.998;56.184;2023-02-02T04:17:46;100762.75;;;-8.32;59.13
61113;BME280;47184;57.998;56.184;2023-02-02T04:20:12;100793.09;;;-8.04;58.56
61113;BME280;47184;57.998;56.184;2023-02-02T04:22:38;100799.78;;;-7.97;58.56
61113;BME280;47184;57.998;56.184;2023-02-02T04:25:04;100802.34;;;-7.97;58.82
61113;BME280;47184;57.998;56.184;2023-02-02T04:27:30;100794.03;;;-8.11;58.85
61113;BME280;47184;57.998;56.184;2023-02-02T04:29:58;100761.88;;;-8.31;59.02
61113;BME280;47184;57.998;56.184;2023-02-02T04:32:24;100803.47;;;-8.13;58.90
61113;BME280;47184;57.998;56.184;2023-02-02T04:34:50;100807.66;;;-8.09;58.85
61113;BME280;47184;57.998;56.184;2023-02-02T04:37:16;100779.84;;;-8.32;58.82
61113;BME280;47184;57.998;56.184;2023-02-02T04:39:42;100817.19;;;-8.16;58.98
61113;BME280;47184;57.998;56.184;2023-02-02T04:42:08;100808.66;;;-8.18;59.01
61113;BME280;47184;57.998;56.184;2023-02-02T04:44:34;100812.91;;;-8.17;59.37
61113;BME280;47184;57.998;56.184;2023-02-02T04:47:00;100792.47;;;-8.20;59.07
61113;BME280;47184;57.998;56.184;2023-02-02T04:49:26;100805.94;;;-8.07;59.70
61113;BME280;47184;57.998;56.184;2023-02-02T04:51:52;100812.63;;;-7.99;59.25
61113;BME280;47184;57.998;56.184;2023-02-02T04:54:18;100822.78;;;-7.91;59.64
61113;BME280;47184;57.998;56.184;2023-02-02T04:56:46;100802.34;;;-7.95;59.44
61113;BME280;47184;57.998;56.184;2023-02-02T04:59:12;100801.34;;;-7.88;59.60
61113;BME280;47184;57.998;56.184;2023-02-02T05:01:38;100755.50;;;-8.05;59.87
61113;BME280;47184;57.998;56.184;2023-02-02T05:04:05;100779.09;;;-7.85;60.15
61113;BME280;47184;57.998;56.184;2023-02-02T05:06:31;100798.41;;;-7.65;60.10
61113;BME280;47184;57.998;56.184;2023-02-02T05:08:57;100769.47;;;-7.70;59.67
61113;BME280;47184;57.998;56.184;2023-02-02T05:11:24;100809.03;;;-7.37;60.10
61113;BME280;47184;57.998;56.184;2023-02-02T05:13:52;100791.13;;;-7.40;59.67
61113;BME280;47184;57.998;56.184;2023-02-02T05:16:19;100836.75;;;-7.10;59.78
61113;BME280;47184;57.998;56.184;2023-02-02T05:18:51;100827.09;;;-6.97;59.57
61113;BME280;47184;57.998;56.184;2023-02-02T05:21:19;100817.19;;;-6.72;59.37
61113;BME280;47184;57.998;56.184;2023-02-02T05:23:46;100817.66;;;-6.53;59.09
61113;BME280;47184;57.998;56.184;2023-02-02T05:26:15;100827.78;;;-6.47;58.69
61113;BME280;47184;57.998;56.184;2023-02-02T05:28:43;100797.84;;;-6.48;59.18
61113;BME280;47184;57.998;56.184;2023-02-02T05:31:09;100820.44;;;-6.25;58.79
61113;BME280;47184;57.998;56.184;2023-02-02T05:33:35;100813.69;;;-6.29;58.96
61113;BME280;47184;57.998;56.184;2023-02-02T05:36:01;100800.19;;;-6.39;59.15
61113;BME280;47184;57.998;56.184;2023-02-02T05:38:27;100797.56;;;-6.36;58.87
61113;BME280;47184;57.998;56.184;2023-02-02T05:40:53;100772.78;;;-6.38;59.15
61113;BME280;47184;57.998;56.184;2023-02-02T05:43:23;100770.00;;;-6.29;58.68
61113;BME280;47184;57.998;56.184;2023-02-02T05:45:50;100802.66;;;-5.95;58.76
61113;BME280;47184;57.998;56.184;2023-02-02T05:48:16;100792.16;;;-5.89;58.40
61113;BME280;47184;57.998;56.184;2023-02-02T05:50:46;100820.78;;;-5.67;58.68
61113;BME280;47184;57.998;56.184;2023-02-02T05:53:15;100811.47;;;-5.73;58.74
61113;BME280;47184;57.998;56.184;2023-02-02T05:55:41;100778.28;;;-5.82;58.74
61113;BME280;47184;57.998;56.184;2023-02-02T05:58:07;100779.72;;;-5.72;58.61
61113;BME280;47184;57.998;56.184;2023-02-02T06:00:33;100813.88;;;-5.33;58.78
61113;BME280;47184;57.998;56.184;2023-02-02T06:02:59;100810.03;;;-5.16;58.45
61113;BME280;47184;57.998;56.184;2023-02-02T06:05:25;100789.31;;;-4.82;58.30
61113;BME280;47184;57.998;56.184;2023-02-02T06:07:51;100793.78;;;-4.30;57.93
61113;BME280;47184;57.998;56.184;2023-02-02T06:10:17;100770.88;;;-3.86;57.03
61113;BME280;47184;57.998;56.184;2023-02-02T06:12:43;100773.75;;;-3.18;56.10
61113;BME280;47184;57.998;56.184;2023-02-02T06:15:09;100807.34;;;-2.48;55.34
61113;BME280;47184;57.998;56.184;2023-02-02T06:17:36;100803.38;;;-2.35;55.16
61113;BME280;47184;57.998;56.184;2023-02-02T06:20:02;100802.75;;;-1.96;54.49
61113;BME280;47184;57.998;56.184;2023-02-02T06:22:29;100788.63;;;-1.26;54.16
61113;BME280;47184;57.998;56.184;2023-02-02T06:24:57;100802.94;;;-0.40;53.61
61113;BME280;47184;57.998;56.184;2023-02-02T06:27:23;100794.63;;;-0.30;53.26
61113;BME280;47184;57.998;56.184;2023-02-02T06:29:49;100795.09;;;-0.03;53.08
61113;BME280;47184;57.998;56.184;2023-02-02T06:32:15;100802.22;;;0.46;52.82
61113;BME280;47184;57.998;56.184;2023-02-02T06:34:41;100802.53;;;1.08;52.53
61113;BME280;47184;57.998;56.184;2023-02-02T06:37:09;100796.47;;;1.56;52.17
61113;BME280;47184;57.998;56.184;2023-02-02T06:39:37;100813.41;;;2.11;51.36
61113;BME280;47184;57.998;56.184;2023-02-02T06:42:03;100772.09;;;1.89;51.34
61113;BME280;47184;57.998;56.184;2023-02-02T06:44:29;100784.91;;;2.08;51.30
61113;BME280;47184;57.998;56.184;2023-02-02T06:46:56;100782.06;;;2.12;50.76
61113;BME280;47184;57.998;56.184;2023-02-02T06:49:22;100784.56;;;2.14;50.19
61113;BME280;47184;57.998;56.184;2023-02-02T06:51:48;100798.25;;;2.33;50.77
61113;BME280;47184;57.998;56.184;2023-02-02T06:54:14;100799.19;;;2.16;50.76
61113;BME280;47184;57.998;56.184;2023-02-02T06:56:41;100794.88;;;2.31;50.25
61113;BME280;47184;57.998;56.184;2023-02-02T06:59:07;100794.03;;;2.75;50.17
61113;BME280;47184;57.998;56.184;2023-02-02T07:01:33;100795.56;;;3.08;49.56
61113;BME280;47184;57.998;56.184;2023-02-02T07:03:59;100774.41;;;2.98;50.06
61113;BME280;47184;57.998;56.184;2023-02-02T07:06:27;100796.66;;;2.89;49.00
61113;BME280;47184;57.998;56.184;2023-02-02T07:08:54;100795.03;;;2.72;49.55
61113;BME280;47184;57.998;56.184;2023-02-02T07:11:21;100788.06;;;2.59;49.96
61113;BME280;47184;57.998;56.184;2023-02-02T07:13:49;100767.41;;;2.98;48.96
61113;BME280;47184;57.998;56.184;2023-02-02T07:16:16;100792.69;;;3.68;48.28
61113;BME280;47184;57.998;56.184;2023-02-02T07:18:42;100774.66;;;3.78;48.16
61113;BME280;47184;57.998;56.184;2023-02-02T07:21:19;100791.25;;;4.04;47.73
61113;BME280;47184;57.998;56.184;2023-02-02T07:23:46;100744.25;;;3.77;47.55
61113;BME280;47184;57.998;56.184;2023-02-02T07:26:14;100791.28;;;3.62;47.67
61113;BME280;47184;57.998;56.184;2023-02-02T07:28:41;100775.22;;;3.13;47.96
61113;BME280;47184;57.998;56.184;2023-02-02T07:31:18;100772.97;;;2.64;47.97
61113;BME280;47184;57.998;56.184;2023-02-02T07:33:45;100777.38;;;2.33;48.49
61113;BME280;47184;57.998;56.184;2023-02-02T07:36:16;100772.38;;;2.14;48.70
61113;BME280;47184;57.998;56.184;2023-02-02T07:38:43;100772.13;;;2.19;48.44
61113;BME280;47184;57.998;56.184;2023-02-02T07:41:10;100746.69;;;2.08;48.67
61113;BME280;47184;57.998;56.184;2023-02-02T07:43:37;100768.84;;;2.15;48.18
61113;BME280;47184;57.998;56.184;2023-02-02T07:46:12;100754.53;;;2.22;48.26
61113;BME280;47184;57.998;56.184;2023-02-02T07:48:39;100759.09;;;2.49;47.52
61113;BME280;47184;57.998;56.184;2023-02-02T07:51:07;100748.06;;;2.44;47.34
61113;BME280;47184;57.998;56.184;2023-02-02T07:53:34;100758.38;;;2.01;47.96
61113;BME280;47184;57.998;56.184;2023-02-02T07:56:17;100743.81;;;1.67;48.04
61113;BME280;47184;57.998;56.184;2023-02-02T07:58:47;100765.16;;;1.58;48.38
61113;BME280;47184;57.998;56.184;2023-02-02T08:01:14;100765.66;;;1.33;48.00
61113;BME280;47184;57.998;56.184;2023-02-02T08:03:41;100773.09;;;1.07;48.28
61113;BME280;47184;57.998;56.184;2023-02-02T08:08:35;100751.22;;;0.61;48.66
61113;BME280;47184;57.998;56.184;2023-02-02T08:11:04;100748.28;;;0.51;49.03
61113;BME280;47184;57.998;56.184;2023-02-02T08:13:33;100770.94;;;0.65;48.94
61113;BME280;47184;57.998;56.184;2023-02-02T08:15:59;100756.22;;;0.65;48.72
61113;BME280;47184;57.998;56.184;2023-02-02T08:18:28;100744.44;;;0.58;48.28
61113;BME280;47184;57.998;56.184;2023-02-02T08:20:57;100744.31;;;0.61;48.21
61113;BME280;47184;57.998;56.184;2023-02-02T08:23:23;100725.88;;;0.48;48.19
61113;BME280;47184;57.998;56.184;2023-02-02T08:25:50;100751.91;;;0.82;47.92
61113;BME280;47184;57.998;56.184;2023-02-02T08:28:17;100739.25;;;0.91;47.65
61113;BME280;47184;57.998;56.184;2023-02-02T08:30:44;100734.34;;;1.03;47.47
61113;BME280;47184;57.998;56.184;2023-02-02T08:33:11;100746.59;;;1.16;47.40
61113;BME280;47184;57.998;56.184;2023-02-02T08:35:41;100754.31;;;1.02;47.10
61113;BME280;47184;57.998;56.184;2023-02-02T08:38:09;100724.75;;;0.54;46.83
61113;BME280;47184;57.998;56.184;2023-02-02T08:40:35;100735.75;;;0.42;47.15
61113;BME280;47184;57.998;56.184;2023-02-02T08:43:03;100727.75;;;0.29;47.61
61113;BME280;47184;57.998;56.184;2023-02-02T08:45:30;100730.03;;;0.18;46.56
61113;BME280;47184;57.998;56.184;2023-02-02T08:47:56;100745.38;;;0.22;46.54
61113;BME280;47184;57.998;56.184;2023-02-02T08:50:28;100729.44;;;0.13;46.63
61113;BME280;47184;57.998;56.184;2023-02-02T08:52:54;100736.22;;;0.33;46.27
61113;BME280;47184;57.998;56.184;2023-02-02T08:55:20;100714.94;;;0.59;46.47
61113;BME280;47184;57.998;56.184;2023-02-02T08:57:46;100726.25;;;0.91;45.67
61113;BME280;47184;57.998;56.184;2023-02-02T09:00:14;100718.75;;;0.85;45.43
61113;BME280;47184;57.998;56.184;2023-02-02T09:02:41;100656.25;;;0.22;45.60
61113;BME280;47184;57.998;56.184;2023-02-02T09:05:07;100707.41;;;0.37;45.98
61113;BME280;47184;57.998;56.184;2023-02-02T09:07:33;100692.69;;;0.20;46.13
61113;BME280;47184;57.998;56.184;2023-02-02T09:10:01;100711.38;;;0.27;46.30
61113;BME280;47184;57.998;56.184;2023-02-02T09:12:28;100699.72;;;0.18;46.39
61113;BME280;47184;57.998;56.184;2023-02-02T09:14:54;100716.19;;;0.35;46.11
61113;BME280;47184;57.998;56.184;2023-02-02T09:17:23;100713.00;;;0.30;46.09
61113;BME280;47184;57.998;56.184;2023-02-02T09:19:51;100697.88;;;0.20;46.08
61113;BME280;47184;57.998;56.184;2023-02-02T09:22:16;100700.94;;;0.29;46.11
61113;BME280;47184;57.998;56.184;2023-02-02T09:24:45;100701.53;;;0.34;46.06
61113;BME280;47184;57.998;56.184;2023-02-02T09:27:23;100711.69;;;0.38;46.49
61113;BME280;47184;57.998;56.184;2023-02-02T09:29:52;100708.16;;;0.39;46.23
61113;BME280;47184;57.998;56.184;2023-02-02T09:32:21;100702.84;;;0.25;46.28
61113;BME280;47184;57.998;56.184;2023-02-02T09:34:47;100699.41;;;0.24;45.95
61113;BME280;47184;57.998;56.184;2023-02-02T09:37:13;100706.44;;;0.22;46.35
61113;BME280;47184;57.998;56.184;2023-02-02T09:39:39;100697.59;;;0.09;46.42
61113;BME280;47184;57.998;56.184;2023-02-02T09:42:38;100683.53;;;-0.04;46.26
61113;BME280;47184;57.998;56.184;2023-02-02T09:45:21;100684.91;;;-0.14;46.44
61113;BME280;47184;57.998;56.184;2023-02-02T09:48:01;100694.28;;;0.06;46.62
61113;BME280;47184;57.998;56.184;2023-02-02T09:53:44;100690.31;;;-0.19;46.16
61113;BME280;47184;57.998;56.184;2023-02-02T09:56:22;100692.53;;;-0.11;46.32
61113;BME280;47184;57.998;56.184;2023-02-02T09:58:58;100691.53;;;-0.09;46.42
61113;BME280;47184;57.998;56.184;2023-02-02T10:01:32;100681.56;;;-0.16;46.28
61113;BME280;47184;57.998;56.184;2023-02-02T10:07:03;100698.19;;;-0.20;46.36
61113;BME280;47184;57.998;56.184;2023-02-02T10:09:46;100696.34;;;-0.18;46.63
61113;BME280;47184;57.998;56.184;2023-02-02T10:12:18;100694.59;;;-0.01;47.19
61113;BME280;47184;57.998;56.184;2023-02-02T10:17:25;100692.53;;;-0.11;47.16
61113;BME280;47184;57.998;56.184;2023-02-02T10:20:08;100682.38;;;-0.16;47.30
61113;BME280;47184;57.998;56.184;2023-02-02T10:22:41;100691.16;;;-0.01;47.25
61113;BME280;47184;57.998;56.184;2023-02-02T10:25:13;100694.31;;;-0.12;47.19
61113;BME280;47184;57.998;56.184;2023-02-02T10:27:53;100667.56;;;-0.14;47.57
61113;BME280;47184;57.998;56.184;2023-02-02T10:30:39;100690.91;;;0.04;47.26
61113;BME280;47184;57.998;56.184;2023-02-02T10:33:19;100675.28;;;-0.12;47.26
61113;BME280;47184;57.998;56.184;2023-02-02T10:36:20;100681.38;;;-0.31;47.78
61113;BME280;47184;57.998;56.184;2023-02-02T10:39:10;100692.22;;;-0.22;47.76
61113;BME280;47184;57.998;56.184;2023-02-02T10:41:48;100683.75;;;-0.26;47.73
61113;BME280;47184;57.998;56.184;2023-02-02T10:44:48;100671.81;;;-0.47;47.73
61113;BME280;47184;57.998;56.184;2023-02-02T10:47:26;100677.91;;;-0.48;47.89
61113;BME280;47184;57.998;56.184;2023-02-02T10:50:16;100688.78;;;-0.40;48.04
61113;BME280;47184;57.998;56.184;2023-02-02T10:52:47;100637.25;;;-0.65;48.28
61113;BME280;47184;57.998;56.184;2023-02-02T11:00:21;100690.81;;;-0.30;48.31
61113;BME280;47184;57.998;56.184;2023-02-02T11:02:48;100693.13;;;-0.23;47.98
61113;BME280;47184;57.998;56.184;2023-02-02T11:05:26;100705.50;;;-0.29;48.52
61113;BME280;47184;57.998;56.184;2023-02-02T11:10:45;100710.22;;;-0.37;48.26
61113;BME280;47184;57.998;56.184;2023-02-02T11:13:21;100706.72;;;-0.36;48.20
61113;BME280;47184;57.998;56.184;2023-02-02T11:15:49;100689.28;;;-0.34;48.37
61113;BME280;47184;57.998;56.184;2023-02-02T11:18:29;100702.69;;;-0.24;48.41
61113;BME280;47184;57.998;56.184;2023-02-02T11:20:57;100709.41;;;-0.20;48.36
61113;BME280;47184;57.998;56.184;2023-02-02T11:23:25;100687.16;;;-0.43;48.04
61113;BME280;47184;57.998;56.184;2023-02-02T11:26:00;100691.41;;;-0.59;48.33
61113;BME280;47184;57.998;56.184;2023-02-02T11:28:33;100686.56;;;-0.67;48.35
61113;BME280;47184;57.998;56.184;2023-02-02T11:31:00;100705.78;;;-0.71;48.12
61113;BME280;47184;57.998;56.184;2023-02-02T11:33:31;100711.03;;;-0.72;48.30
61113;BME280;47184;57.998;56.184;2023-02-02T11:36:03;100714.25;;;-0.67;48.70
61113;BME280;47184;57.998;56.184;2023-02-02T11:38:30;100713.41;;;-0.68;48.13
61113;BME280;47184;57.998;56.184;2023-02-02T11:41:02;100693.81;;;-0.92;48.37
61113;BME280;47184;57.998;56.184;2023-02-02T11:46:26;100698.28;;;-0.96;48.16
61113;BME280;47184;57.998;56.184;2023-02-02T11:49:05;100717.41;;;-0.98;48.66
61113;BME280;47184;57.998;56.184;2023-02-02T11:51:37;100702.66;;;-1.36;48.11
61113;BME280;47184;57.998;56.184;2023-02-02T11:54:11;100708.53;;;-1.51;48.18
61113;BME280;47184;57.998;56.184;2023-02-02T11:56:41;100647.13;;;-1.88;48.53
61113;BME280;47184;57.998;56.184;2023-02-02T11:59:27;100701.22;;;-1.82;48.04
61113;BME280;47184;57.998;56.184;2023-02-02T12:04:39;100699.75;;;-2.08;48.21
61113;BME280;47184;57.998;56.184;2023-02-02T12:07:27;100708.88;;;-2.00;48.46
61113;BME280;47184;57.998;56.184;2023-02-02T12:10:00;100695.09;;;-2.00;48.45
61113;BME280;47184;57.998;56.184;2023-02-02T12:17:47;100705.28;;;-1.77;48.44
61113;BME280;47184;57.998;56.184;2023-02-02T12:20:30;100697.91;;;-1.65;48.29
61113;BME280;47184;57.998;56.184;2023-02-02T12:23:20;100707.88;;;-1.56;48.44
61113;BME280;47184;57.998;56.184;2023-02-02T12:26:24;100711.97;;;-1.51;48.25
61113;BME280;47184;57.998;56.184;2023-02-02T12:34:20;100705.28;;;-1.77;48.17
61113;BME280;47184;57.998;56.184;2023-02-02T12:37:10;100696.75;;;-1.79;48.26
61113;BME280;47184;57.998;56.184;2023-02-02T12:48:42;100693.19;;;-1.96;48.39
61113;BME280;47184;57.998;56.184;2023-02-02T12:52:11;100716.63;;;-1.79;48.50
61113;BME280;47184;57.998;56.184;2023-02-02T12:54:57;100695.78;;;-1.76;48.21
61113;BME280;47184;57.998;56.184;2023-02-02T13:06:15;100686.81;;;-1.88;48.47
61113;BME280;47184;57.998;56.184;2023-02-02T13:14:12;100687.88;;;-1.73;48.52
61113;BME280;47184;57.998;56.184;2023-02-02T13:16:44;100687.84;;;-1.92;48.33
61113;BME280;47184;57.998;56.184;2023-02-02T13:22:30;100649.88;;;-2.34;49.23
61113;BME280;47184;57.998;56.184;2023-02-02T13:25:00;100672.22;;;-2.11;49.70
61113;BME280;47184;57.998;56.184;2023-02-02T13:27:28;100666.22;;;-2.11;49.26
61113;BME280;47184;57.998;56.184;2023-02-02T13:30:02;100661.09;;;-2.13;49.64
61113;BME280;47184;57.998;56.184;2023-02-02T13:32:36;100601.34;;;-2.47;50.13
61113;BME280;47184;57.998;56.184;2023-02-02T13:35:22;100658.19;;;-2.26;50.08
61113;BME280;47184;57.998;56.184;2023-02-02T13:37:54;100670.66;;;-2.35;50.95
61113;BME280;47184;57.998;56.184;2023-02-02T13:40:33;100681.72;;;-2.76;51.18
61113;BME280;47184;57.998;56.184;2023-02-02T13:45:54;100694.34;;;-3.37;53.35
61113;BME280;47184;57.998;56.184;2023-02-02T13:48:38;100697.97;;;-3.66;54.02
61113;BME280;47184;57.998;56.184;2023-02-02T13:51:17;100714.66;;;-3.76;55.03
61113;BME280;47184;57.998;56.184;2023-02-02T13:57:00;100694.78;;;-4.24;56.70
61113;BME280;47184;57.998;56.184;2023-02-02T14:02:41;100703.78;;;-4.11;56.37
61113;BME280;47184;57.998;56.184;2023-02-02T14:05:23;100710.59;;;-4.08;56.89
61113;BME280;47184;57.998;56.184;2023-02-02T14:08:04;100680.19;;;-4.25;57.37
61113;BME280;47184;57.998;56.184;2023-02-02T14:10:38;100713.22;;;-4.10;57.61
61113;BME280;47184;57.998;56.184;2023-02-02T14:13:21;100665.31;;;-4.43;58.20
61113;BME280;47184;57.998;56.184;2023-02-02T14:16:10;100658.19;;;-4.35;57.81
61113;BME280;47184;57.998;56.184;2023-02-02T14:26:50;100716.75;;;-4.12;59.31
61113;BME280;47184;57.998;56.184;2023-02-02T14:34:55;100668.53;;;-4.10;58.69
61113;BME280;47184;57.998;56.184;2023-02-02T14:49:09;100674.28;;;-4.02;59.26
61113;BME280;47184;57.998;56.184;2023-02-02T14:51:54;100698.63;;;-4.11;59.02
61113;BME280;47184;57.998;56.184;2023-02-02T14:54:24;100659.44;;;-4.20;59.53
61113;BME280;47184;57.998;56.184;2023-02-02T14:56:55;100702.06;;;-4.10;59.15
61113;BME280;47184;57.998;56.184;2023-02-02T14:59:34;100705.69;;;-4.16;59.09
61113;BME280;47184;57.998;56.184;2023-02-02T15:04:37;100702.00;;;-4.09;58.89